Central Sonoma County Latest

23 Stations

15 Minute Data | America/Los_Angeles
as of 2/28/20 7:48 AM PST
Station Date Time Temp (°F) RH (%) Dew Pt (°F) Wind Spd (mph) Wind Dir (°) Wind Gust (mph) Latest Rain (In) Daily Rain (In) Daily Min Temp (°F) Daily Max Temp (°F)
Healdsburg - S (Sodini) 2/28/20 0745 46.8   1.4 87   0 43.1   1.5 0.0 N | 0 0.0   0.0 0.00 0.00 42.7   2.4 48.7   1.2
Ranch 8 (Windsor-NW) 2/28/20 0745 49.3   2.5 83   1 44.5   2.3 1.4 SSW | 194 2.7   1.2 0.00 0.00 47.3   2.5 52.5   2.5
Foothill Ranch 16 2/28/20 0745 45.6   2.5 90   4 43.0   1.5 0.7 NE | 52 2.3   1.1 0.00 0.00 43.3   2.8 52.7   5.3
Airport Ranch 14 2/28/20 0745 47.3   1.7 87   0 43.7   1.8 0.8 S | 173 2.4   1.1 0.00 0.00 43.4   3.4 49.4   2.4
Silk Road 2/28/20 0745 43.6   2.0 97   0 42.8   2.0 0.5 ENE | 59 1.6   0.4 0.00 0.00 41.3   4.1 46.6   3.0
Oak Meadows Ranch 5 2/28/20 0745 44.7   0.4 94   3 42.9   0.3 0.2 ENE | 78 1.0   0.1 0.00 0.00 42.0   4.0 49.6   2.3
Laughlin Rd (Windsor-South) 2/28/20 0745 45.6   1.9 92   1 43.6   1.7 - - - 0.00 0.00 43.9   4.2 50.3   1.3
Barnes Rd (SE Fulton) 2/28/20 0745 45.0   3.1 90   4 42.4   2.1 1.4 E | 96 2.7   0.3 0.00 0.00 42.0   3.0 49.3   2.7
Crinella Ranch 21 2/28/20 0745 44.2   0.2 94   3 42.6   1.0 1.4 SSE | 156 2.8   1.5 0.00 0.00 42.4   3.8 49.0   2.9
Goldfields (NW Santa Rosa) 2/28/20 0745 44.2   3.8 95   17 42.7   1.3 1.3 SSE | 154 3.0   1.4 0.00 0.00 42.2   2.8 49.5   0.3
Denner Ranch Base 2/28/20 0745 43.9   0.2 96   6 42.9   1.4 1.7 SE | 125 2.6   2.0 0.00 0.00 41.8   3.6 47.1   1.8
Guerneville Road (Santa Rosa Plains) 2/28/20 0745 42.1   1.5 98   0 41.6   1.3 1.8 E | 86 2.5   1.1 0.00 0.00 40.4   3.2 46.4   2.4
Rich Ranch (Guerneville Rd) 2/28/20 0745 42.2   1.4 98   8 41.7   0.8 - - - - - 40.5   4.0 45.4   0.6
Occidental Rd (Sebastopol) 2/28/20 0745 41.2   0.6 100   0 41.2   0.6 0.8 E | 97 1.5   0.2 0.00 0.00 40.0   3.6 45.7   1.2
Garrison Ranch 12 2/28/20 0745 44.4   4.0 100   0 44.4   4.0 0.3 W | 273 1.4   1.4 0.00 0.00 42.2   3.3 47.8   3.1
Laughlin Rd (Guerneville) 2/28/20 0745 40.3   3.8 100   0 40.4   3.8 0.0 N | 0 0.0   2.6 0.00 0.00 38.9   4.0 43.9   2.5
Korbel Winery 2/28/20 0745 43.4   2.2 100   0 43.4   2.2 0.0 N | 0 0.0   0.0 0.00 0.00 41.3   3.5 45.3   1.9
Shone Farms (Forestville) 2/28/20 0745 45.2   2.1 93   9 43.4   0.5 1.0 WSW | 258 2.5   2.0 0.00 0.00 44.0   3.8 50.9   0.2
Ranch 30 (Forestville-NE) 2/28/20 0745 44.0   0.5 96   6 43.0   2.3 1.8 N | 3 3.7   3.7 0.00 0.00 41.8   3.8 47.7   1.4
Dutton Ranch (Graton-West) 2/28/20 0745 42.5   1.7 100   0 42.5   1.7 0.3 SE | 127 1.4   0.0 0.00 0.00 40.7   4.0 45.5   1.5
Mill Station Rd (Graton-South) 2/28/20 0745 39.6   1.3 98   0 39.0   1.4 0.4 ESE | 120 2.6   0.4 0.00 0.00 38.2   3.6 44.6   2.4
Burnside Road (Sebastopol Hills) 2/28/20 0745 50.5   1.2 77   2 43.7   1.8 1.3 ENE | 66 4.7   0.1 0.00 0.00 49.4   1.5 56.8   2.6
Hirsch Vineyards 2/28/20 0745 61.6   1.1 42   3 38.0   0.6 1.8 S | 169 2.9   4.7 0.00 0.00 59.1   1.9 64.1   0.5
Max     61.6 100 44.5 1.8 - 4.7 0.00 0.00 59.1 64.1
Avg     45.1 92 42.5 0.9 - 2.1 0.00 - - -
Min     39.6 42 38.0 0.0 - 0.0 0.00 0.00 38.2 43.9